createdAt,value
2019-01-04T00:01:12.437Z,14.07
2019-01-04T00:03:38.626Z,26.80
2019-01-04T00:06:04.801Z,16.93
2019-01-04T00:08:30.988Z,13.77
2019-01-04T00:10:57.173Z,14.53
2019-01-04T00:13:23.366Z,14.07
2019-01-04T00:15:49.535Z,15.40
2019-01-04T00:18:15.759Z,12.90
2019-01-04T00:20:41.905Z,11.50
2019-01-04T00:23:08.090Z,13.33
2019-01-04T00:25:34.263Z,14.03
2019-01-04T00:28:00.445Z,13.57
2019-01-04T00:30:26.622Z,19.03
2019-01-04T00:32:52.817Z,28.30
2019-01-04T00:35:19.009Z,30.10
2019-01-04T00:37:45.183Z,16.67
2019-01-04T00:40:11.371Z,19.50
2019-01-04T00:42:37.544Z,18.47
2019-01-04T00:45:06.435Z,21.23
2019-01-04T00:47:32.613Z,42.97
2019-01-04T00:49:58.800Z,21.27
2019-01-04T00:52:24.987Z,22.50
2019-01-04T00:54:52.968Z,35.17
2019-01-04T00:57:27.548Z,29.17
2019-01-04T01:00:37.474Z,18.80
2019-01-04T01:03:47.334Z,27.37
2019-01-04T01:07:00.946Z,21.33
2019-01-04T01:09:41.604Z,22.20
2019-01-04T01:12:33.731Z,22.77
2019-01-04T01:15:14.218Z,10.83
2019-01-04T01:18:12.727Z,12.77
2019-01-04T01:21:02.454Z,13.80
2019-01-04T01:24:17.004Z,12.30
2019-01-04T01:26:57.624Z,13.53
2019-01-04T01:30:01.000Z,13.17
2019-01-04T01:32:59.535Z,14.23
2019-01-04T01:35:46.495Z,14.47
2019-01-04T01:38:48.469Z,15.13
2019-01-04T01:41:46.366Z,15.33
2019-01-04T01:44:29.568Z,15.03
2019-01-04T01:47:09.732Z,18.60
2019-01-04T01:49:41.648Z,18.20
2019-01-04T01:52:22.547Z,16.63
2019-01-04T01:54:48.733Z,15.10
2019-01-04T01:57:14.909Z,15.90
2019-01-04T01:59:41.269Z,19.60
2019-01-04T02:02:07.463Z,15.70
2019-01-04T02:04:33.647Z,18.47
2019-01-04T02:06:59.824Z,21.27
2019-01-04T02:09:26.016Z,17.70
2019-01-04T02:11:52.194Z,16.33
2019-01-04T02:14:18.632Z,16.43
2019-01-04T02:16:44.817Z,14.43
2019-01-04T02:19:10.998Z,15.67
2019-01-04T02:21:37.181Z,15.87
2019-01-04T02:24:03.368Z,18.33
2019-01-04T02:26:29.548Z,18.17
2019-01-04T02:28:55.727Z,16.37
2019-01-04T02:31:21.913Z,16.80
2019-01-04T02:33:48.124Z,21.30
2019-01-04T02:36:14.296Z,20.00
2019-01-04T02:38:40.469Z,20.20
2019-01-04T02:41:06.662Z,19.50
2019-01-04T02:43:32.836Z,19.30
2019-01-04T02:45:59.033Z,17.93
2019-01-04T02:48:25.210Z,17.77
2019-01-04T02:50:51.395Z,26.63
2019-01-04T02:53:17.571Z,30.27
2019-01-04T02:55:43.755Z,25.77
2019-01-04T02:58:09.933Z,23.67
2019-01-04T03:00:36.117Z,20.90
2019-01-04T03:03:02.393Z,20.77
2019-01-04T03:05:28.585Z,20.67
2019-01-04T03:07:54.760Z,30.50
2019-01-04T03:10:20.946Z,18.07
2019-01-04T03:12:47.117Z,25.03
2019-01-04T03:15:13.295Z,20.60
2019-01-04T03:17:39.479Z,20.33
2019-01-04T03:20:05.868Z,20.53
2019-01-04T03:22:32.048Z,23.33
2019-01-04T03:24:58.232Z,20.97
2019-01-04T03:27:24.413Z,20.00
2019-01-04T03:29:50.605Z,25.90
2019-01-04T03:32:16.792Z,23.57
2019-01-04T03:34:42.976Z,25.13
2019-01-04T03:37:09.149Z,15.67
2019-01-04T03:39:35.342Z,21.33
2019-01-04T03:42:01.620Z,22.13
2019-01-04T03:44:27.798Z,17.97
2019-01-04T03:46:53.981Z,24.63
2019-01-04T03:49:20.156Z,22.47
2019-01-04T03:51:46.343Z,23.37
2019-01-04T03:54:12.515Z,27.47
2019-01-04T03:56:38.713Z,25.13
2019-01-04T03:59:04.890Z,21.07
2019-01-04T04:01:31.078Z,31.57
2019-01-04T04:03:57.252Z,21.57
2019-01-04T04:06:23.441Z,20.77
2019-01-04T04:08:49.612Z,29.97
2019-01-04T04:11:15.794Z,22.27
2019-01-04T04:13:41.972Z,28.70
2019-01-04T04:16:08.158Z,22.03
2019-01-04T04:18:34.335Z,21.93
2019-01-04T04:21:00.528Z,26.73
2019-01-04T04:23:26.695Z,20.67
2019-01-04T04:25:52.889Z,21.70
2019-01-04T04:28:19.062Z,27.40
2019-01-04T04:30:45.607Z,27.33
2019-01-04T04:33:11.793Z,26.03
2019-01-04T04:35:37.985Z,28.37
2019-01-04T04:38:04.160Z,29.13
2019-01-04T04:40:30.852Z,24.30
2019-01-04T04:42:57.219Z,31.43
2019-01-04T04:45:23.402Z,27.97
2019-01-04T04:47:49.570Z,24.47
2019-01-04T04:50:15.773Z,24.47
2019-01-04T04:52:41.933Z,29.33
2019-01-04T04:55:08.123Z,28.10
2019-01-04T04:57:34.296Z,28.27
2019-01-04T05:00:00.476Z,28.50
2019-01-04T05:02:26.660Z,28.07
2019-01-04T05:04:52.841Z,33.43
2019-01-04T05:07:19.343Z,30.37
2019-01-04T05:09:45.515Z,29.37
2019-01-04T05:12:11.700Z,33.10
2019-01-04T05:14:37.878Z,35.17
2019-01-04T05:17:04.068Z,30.87
2019-01-04T05:19:30.248Z,29.20
2019-01-04T05:21:56.439Z,32.33
2019-01-04T05:24:22.613Z,36.00
2019-01-04T05:26:48.799Z,37.57
2019-01-04T05:29:14.979Z,41.37
2019-01-04T05:31:41.169Z,34.60
2019-01-04T05:34:07.370Z,32.47
2019-01-04T05:36:33.547Z,40.33
2019-01-04T05:39:00.001Z,33.00
2019-01-04T05:41:26.188Z,38.60
2019-01-04T05:43:52.363Z,33.80
2019-01-04T05:46:18.554Z,33.73
2019-01-04T05:48:44.733Z,35.37
2019-01-04T05:51:10.915Z,32.77
2019-01-04T05:53:37.086Z,38.33
2019-01-04T05:56:03.276Z,34.17
2019-01-04T05:58:29.457Z,40.13
2019-01-04T06:00:55.654Z,33.47
2019-01-04T06:03:21.829Z,38.17
2019-01-04T06:05:48.016Z,41.17
2019-01-04T06:08:14.198Z,41.07
2019-01-04T06:10:40.384Z,42.77
2019-01-04T06:13:06.569Z,43.00
2019-01-04T06:15:32.739Z,35.57
2019-01-04T06:17:58.929Z,34.33
2019-01-04T06:20:25.096Z,37.13
2019-01-04T06:22:51.284Z,39.10
2019-01-04T06:25:17.461Z,44.43
2019-01-04T06:27:44.195Z,36.63
2019-01-04T06:30:10.423Z,36.93
2019-01-04T06:32:36.624Z,35.20
2019-01-04T06:35:03.697Z,48.50
2019-01-04T06:37:29.883Z,42.87
2019-01-04T06:39:56.055Z,43.70
2019-01-04T06:42:22.236Z,44.40
2019-01-04T06:44:48.407Z,42.80
2019-01-04T06:47:15.714Z,39.97
2019-01-04T06:49:42.183Z,40.67
2019-01-04T06:52:08.376Z,42.73
2019-01-04T06:55:13.465Z,37.73
2019-01-04T06:57:39.754Z,40.50
2019-01-04T07:00:07.631Z,39.33
2019-01-04T07:02:33.821Z,41.00
2019-01-04T07:05:00.014Z,42.57
2019-01-04T07:07:26.196Z,47.20
2019-01-04T07:09:52.464Z,48.93
2019-01-04T07:12:18.652Z,45.27
2019-01-04T07:14:44.826Z,42.17
2019-01-04T07:17:11.021Z,45.13
2019-01-04T07:19:37.187Z,37.10
2019-01-04T07:22:03.374Z,36.63
2019-01-04T07:24:29.559Z,44.20
2019-01-04T07:26:55.748Z,36.33
2019-01-04T07:29:21.918Z,38.90
2019-01-04T07:31:48.112Z,41.77
2019-01-04T07:34:14.305Z,41.10
2019-01-04T07:36:40.491Z,38.77
2019-01-04T07:39:06.664Z,42.03
2019-01-04T07:41:32.850Z,34.83
2019-01-04T07:43:59.025Z,35.63
2019-01-04T07:46:25.209Z,39.17
2019-01-04T07:48:51.483Z,38.37
2019-01-04T07:51:18.020Z,36.53
2019-01-04T07:53:44.207Z,38.27
2019-01-04T07:56:10.391Z,35.07
2019-01-04T07:58:36.582Z,37.67
2019-01-04T08:01:02.755Z,41.47
2019-01-04T08:03:28.942Z,36.47
2019-01-04T08:05:55.119Z,34.43
2019-01-04T08:08:21.308Z,32.83
2019-01-04T08:10:47.487Z,38.73
2019-01-04T08:13:13.678Z,30.87
2019-01-04T08:15:39.856Z,31.53
2019-01-04T08:18:06.043Z,27.40
2019-01-04T08:20:32.218Z,25.93
2019-01-04T08:22:58.404Z,25.27
2019-01-04T08:25:24.574Z,29.00
2019-01-04T08:27:50.765Z,25.50
2019-01-04T08:30:16.940Z,25.23
2019-01-04T08:32:43.135Z,23.77
2019-01-04T08:35:09.312Z,27.57
2019-01-04T08:37:35.505Z,24.37
2019-01-04T08:40:02.989Z,23.97
2019-01-04T08:42:29.528Z,24.27
2019-01-04T08:44:55.702Z,25.17
2019-01-04T08:47:22.199Z,23.60
2019-01-04T08:49:48.371Z,30.63
2019-01-04T08:52:14.560Z,28.73
2019-01-04T08:54:40.735Z,22.63
2019-01-04T08:57:07.210Z,41.97
2019-01-04T08:59:33.379Z,30.80
2019-01-04T09:01:59.568Z,32.27
2019-01-04T09:04:25.743Z,27.73
2019-01-04T09:06:51.920Z,24.77
2019-01-04T09:09:18.103Z,22.53
2019-01-04T09:11:44.289Z,28.33
2019-01-04T09:14:10.473Z,35.27
2019-01-04T09:16:36.708Z,37.37
2019-01-04T09:19:02.834Z,27.93
2019-01-04T09:21:29.014Z,25.17
2019-01-04T09:23:55.197Z,27.37
2019-01-04T09:26:21.631Z,27.50
2019-01-04T09:28:47.816Z,24.97
2019-01-04T09:31:14.000Z,43.17
2019-01-04T09:33:40.200Z,40.60
2019-01-04T09:36:06.371Z,24.00
2019-01-04T09:38:32.561Z,50.03
2019-01-04T09:41:24.417Z,39.53
2019-01-04T09:43:50.600Z,85.10
2019-01-04T09:46:16.783Z,47.63
2019-01-04T09:48:42.978Z,49.97
2019-01-04T09:51:09.151Z,30.13
2019-01-04T09:53:35.345Z,52.30
